sensor_id;sensor_type;location;lat;lon;timestamp;temperature;humidity
306;DHT22;137;48.578;9.180;2022-12-07T00:01:05;4.30;98.20
306;DHT22;137;48.578;9.180;2022-12-07T00:03:35;4.30;98.20
306;DHT22;137;48.578;9.180;2022-12-07T00:06:03;4.30;98.20
306;DHT22;137;48.578;9.180;2022-12-07T00:08:30;4.30;98.20
306;DHT22;137;48.578;9.180;2022-12-07T00:11:01;4.30;98.20
306;DHT22;137;48.578;9.180;2022-12-07T00:13:29;4.30;98.20
306;DHT22;137;48.578;9.180;2022-12-07T00:15:59;4.40;98.20
306;DHT22;137;48.578;9.180;2022-12-07T00:18:26;4.30;98.20
306;DHT22;137;48.578;9.180;2022-12-07T00:20:59;4.30;98.20
306;DHT22;137;48.578;9.180;2022-12-07T00:23:25;4.30;98.20
306;DHT22;137;48.578;9.180;2022-12-07T00:25:52;4.30;98.20
306;DHT22;137;48.578;9.180;2022-12-07T00:28:19;4.30;98.20
306;DHT22;137;48.578;9.180;2022-12-07T00:30:46;4.30;98.20
306;DHT22;137;48.578;9.180;2022-12-07T00:33:13;4.40;98.20
306;DHT22;137;48.578;9.180;2022-12-07T00:35:39;4.30;98.20
306;DHT22;137;48.578;9.180;2022-12-07T00:38:08;4.30;98.20
306;DHT22;137;48.578;9.180;2022-12-07T00:40:34;4.30;98.20
306;DHT22;137;48.578;9.180;2022-12-07T00:43:01;4.30;98.20
306;DHT22;137;48.578;9.180;2022-12-07T00:45:28;4.30;98.20
306;DHT22;137;48.578;9.180;2022-12-07T00:47:55;4.30;98.20
306;DHT22;137;48.578;9.180;2022-12-07T00:50:21;4.30;98.20
306;DHT22;137;48.578;9.180;2022-12-07T00:52:48;4.30;98.20
306;DHT22;137;48.578;9.180;2022-12-07T00:55:16;4.30;98.20
306;DHT22;137;48.578;9.180;2022-12-07T00:57:43;4.20;98.20
306;DHT22;137;48.578;9.180;2022-12-07T01:00:10;4.20;98.20
306;DHT22;137;48.578;9.180;2022-12-07T01:02:37;4.10;98.20
306;DHT22;137;48.578;9.180;2022-12-07T01:05:05;4.10;98.20
306;DHT22;137;48.578;9.180;2022-12-07T01:07:32;4.10;98.20
306;DHT22;137;48.578;9.180;2022-12-07T01:09:58;4.10;98.20
306;DHT22;137;48.578;9.180;2022-12-07T01:12:27;4.10;98.20
306;DHT22;137;48.578;9.180;2022-12-07T01:14:53;4.10;98.20
306;DHT22;137;48.578;9.180;2022-12-07T01:17:20;4.20;98.20
306;DHT22;137;48.578;9.180;2022-12-07T01:19:47;4.20;98.20
306;DHT22;137;48.578;9.180;2022-12-07T01:22:13;4.20;98.20
306;DHT22;137;48.578;9.180;2022-12-07T01:24:40;4.20;98.20
306;DHT22;137;48.578;9.180;2022-12-07T01:27:13;4.20;98.20
306;DHT22;137;48.578;9.180;2022-12-07T01:29:41;4.20;98.20
306;DHT22;137;48.578;9.180;2022-12-07T01:32:08;4.20;98.20
306;DHT22;137;48.578;9.180;2022-12-07T01:34:35;4.20;98.20
306;DHT22;137;48.578;9.180;2022-12-07T01:37:01;4.20;98.20
306;DHT22;137;48.578;9.180;2022-12-07T01:39:28;4.20;98.20
306;DHT22;137;48.578;9.180;2022-12-07T01:41:55;4.30;98.20
306;DHT22;137;48.578;9.180;2022-12-07T01:44:24;4.30;98.20
306;DHT22;137;48.578;9.180;2022-12-07T01:46:54;4.30;98.20
306;DHT22;137;48.578;9.180;2022-12-07T01:49:33;4.30;98.20
306;DHT22;137;48.578;9.180;2022-12-07T01:52:07;4.30;98.20
306;DHT22;137;48.578;9.180;2022-12-07T01:54:37;4.30;98.20
306;DHT22;137;48.578;9.180;2022-12-07T01:57:05;4.30;98.20
306;DHT22;137;48.578;9.180;2022-12-07T01:59:33;4.20;98.20
306;DHT22;137;48.578;9.180;2022-12-07T02:02:04;4.30;98.20
306;DHT22;137;48.578;9.180;2022-12-07T02:04:33;4.30;98.20
306;DHT22;137;48.578;9.180;2022-12-07T02:07:03;4.30;98.20
306;DHT22;137;48.578;9.180;2022-12-07T02:09:30;4.30;98.20
306;DHT22;137;48.578;9.180;2022-12-07T02:11:57;4.30;98.20
306;DHT22;137;48.578;9.180;2022-12-07T02:14:24;4.30;98.20
306;DHT22;137;48.578;9.180;2022-12-07T02:17:06;4.30;98.20
306;DHT22;137;48.578;9.180;2022-12-07T02:20:00;4.30;98.20
306;DHT22;137;48.578;9.180;2022-12-07T02:22:51;4.30;98.20
306;DHT22;137;48.578;9.180;2022-12-07T02:25:30;4.30;98.20
306;DHT22;137;48.578;9.180;2022-12-07T02:28:04;4.20;98.20
306;DHT22;137;48.578;9.180;2022-12-07T02:30:37;4.10;98.20
306;DHT22;137;48.578;9.180;2022-12-07T02:33:11;4.10;98.20
306;DHT22;137;48.578;9.180;2022-12-07T02:35:41;4.10;98.20
306;DHT22;137;48.578;9.180;2022-12-07T02:38:14;4.10;98.20
306;DHT22;137;48.578;9.180;2022-12-07T02:40:45;4.10;98.20
306;DHT22;137;48.578;9.180;2022-12-07T02:43:17;4.10;98.20
306;DHT22;137;48.578;9.180;2022-12-07T02:45:48;4.00;98.20
306;DHT22;137;48.578;9.180;2022-12-07T02:48:17;4.00;98.20
306;DHT22;137;48.578;9.180;2022-12-07T02:50:45;3.90;98.20
306;DHT22;137;48.578;9.180;2022-12-07T02:53:31;3.90;98.20
306;DHT22;137;48.578;9.180;2022-12-07T02:55:59;3.90;98.20
306;DHT22;137;48.578;9.180;2022-12-07T02:58:38;3.90;98.20
306;DHT22;137;48.578;9.180;2022-12-07T03:01:16;3.80;98.20
306;DHT22;137;48.578;9.180;2022-12-07T03:03:51;3.80;98.20
306;DHT22;137;48.578;9.180;2022-12-07T03:06:22;3.80;98.20
306;DHT22;137;48.578;9.180;2022-12-07T03:08:57;3.70;98.20
306;DHT22;137;48.578;9.180;2022-12-07T03:11:32;3.70;98.20
306;DHT22;137;48.578;9.180;2022-12-07T03:14:07;3.80;98.20
306;DHT22;137;48.578;9.180;2022-12-07T03:16:42;3.80;98.20
306;DHT22;137;48.578;9.180;2022-12-07T03:19:13;3.80;98.20
306;DHT22;137;48.578;9.180;2022-12-07T03:21:45;3.80;98.20
306;DHT22;137;48.578;9.180;2022-12-07T03:24:15;3.80;98.20
306;DHT22;137;48.578;9.180;2022-12-07T03:26:47;3.80;98.20
306;DHT22;137;48.578;9.180;2022-12-07T03:29:19;3.80;98.20
306;DHT22;137;48.578;9.180;2022-12-07T03:31:53;3.80;98.20
306;DHT22;137;48.578;9.180;2022-12-07T03:34:32;3.80;98.20
306;DHT22;137;48.578;9.180;2022-12-07T03:37:04;3.80;98.20
306;DHT22;137;48.578;9.180;2022-12-07T03:39:37;3.80;98.20
306;DHT22;137;48.578;9.180;2022-12-07T03:42:08;3.80;98.20
306;DHT22;137;48.578;9.180;2022-12-07T03:44:39;3.80;98.20
306;DHT22;137;48.578;9.180;2022-12-07T03:47:13;3.70;98.20
306;DHT22;137;48.578;9.180;2022-12-07T03:49:45;3.80;98.20
306;DHT22;137;48.578;9.180;2022-12-07T03:52:18;3.80;98.20
306;DHT22;137;48.578;9.180;2022-12-07T03:54:53;3.70;98.20
306;DHT22;137;48.578;9.180;2022-12-07T03:57:23;3.70;98.20
306;DHT22;137;48.578;9.180;2022-12-07T03:59:51;3.70;98.20
306;DHT22;137;48.578;9.180;2022-12-07T04:02:19;3.70;98.20
306;DHT22;137;48.578;9.180;2022-12-07T04:04:46;3.70;98.20
306;DHT22;137;48.578;9.180;2022-12-07T04:07:13;3.70;98.20
306;DHT22;137;48.578;9.180;2022-12-07T04:09:40;3.60;98.20
306;DHT22;137;48.578;9.180;2022-12-07T04:12:07;3.60;98.20
306;DHT22;137;48.578;9.180;2022-12-07T04:14:34;3.70;98.20
306;DHT22;137;48.578;9.180;2022-12-07T04:17:00;3.60;98.20
306;DHT22;137;48.578;9.180;2022-12-07T04:19:31;3.60;98.20
306;DHT22;137;48.578;9.180;2022-12-07T04:21:59;3.60;98.20
306;DHT22;137;48.578;9.180;2022-12-07T04:24:27;3.50;98.20
306;DHT22;137;48.578;9.180;2022-12-07T04:26:54;3.50;98.20
306;DHT22;137;48.578;9.180;2022-12-07T04:29:21;3.50;98.20
306;DHT22;137;48.578;9.180;2022-12-07T04:31:48;3.40;98.20
306;DHT22;137;48.578;9.180;2022-12-07T04:34:16;3.40;98.20
306;DHT22;137;48.578;9.180;2022-12-07T04:36:46;3.40;98.20
306;DHT22;137;48.578;9.180;2022-12-07T04:39:18;3.30;98.20
306;DHT22;137;48.578;9.180;2022-12-07T04:41:45;3.40;98.20
306;DHT22;137;48.578;9.180;2022-12-07T04:44:13;3.40;98.20
306;DHT22;137;48.578;9.180;2022-12-07T04:46:41;3.40;98.20
306;DHT22;137;48.578;9.180;2022-12-07T04:49:08;3.40;98.20
306;DHT22;137;48.578;9.180;2022-12-07T04:51:35;3.40;98.20
306;DHT22;137;48.578;9.180;2022-12-07T04:54:03;3.40;98.20
306;DHT22;137;48.578;9.180;2022-12-07T04:56:30;3.40;98.20
306;DHT22;137;48.578;9.180;2022-12-07T04:58:57;3.40;98.20
306;DHT22;137;48.578;9.180;2022-12-07T05:01:24;3.30;98.20
306;DHT22;137;48.578;9.180;2022-12-07T05:03:50;3.30;98.20
306;DHT22;137;48.578;9.180;2022-12-07T05:06:18;3.20;98.20
306;DHT22;137;48.578;9.180;2022-12-07T05:08:45;3.10;98.20
306;DHT22;137;48.578;9.180;2022-12-07T05:11:13;3.00;98.20
306;DHT22;137;48.578;9.180;2022-12-07T05:14:01;2.90;98.20
306;DHT22;137;48.578;9.180;2022-12-07T05:16:28;2.70;98.20
306;DHT22;137;48.578;9.180;2022-12-07T05:18:56;2.60;98.20
306;DHT22;137;48.578;9.180;2022-12-07T05:21:23;2.60;98.20
306;DHT22;137;48.578;9.180;2022-12-07T05:23:50;2.50;98.20
306;DHT22;137;48.578;9.180;2022-12-07T05:26:18;2.40;98.20
306;DHT22;137;48.578;9.180;2022-12-07T05:28:45;2.40;98.20
306;DHT22;137;48.578;9.180;2022-12-07T05:31:15;2.30;98.20
306;DHT22;137;48.578;9.180;2022-12-07T05:33:42;2.30;98.20
306;DHT22;137;48.578;9.180;2022-12-07T05:36:09;2.30;98.20
306;DHT22;137;48.578;9.180;2022-12-07T05:38:36;2.20;98.20
306;DHT22;137;48.578;9.180;2022-12-07T05:41:03;2.20;98.20
306;DHT22;137;48.578;9.180;2022-12-07T05:43:32;2.20;98.20
306;DHT22;137;48.578;9.180;2022-12-07T05:45:59;2.30;98.20
306;DHT22;137;48.578;9.180;2022-12-07T05:48:26;2.30;98.20
306;DHT22;137;48.578;9.180;2022-12-07T05:50:53;2.30;98.20
306;DHT22;137;48.578;9.180;2022-12-07T05:53:20;2.30;98.20
306;DHT22;137;48.578;9.180;2022-12-07T05:55:47;2.20;98.20
306;DHT22;137;48.578;9.180;2022-12-07T05:58:13;2.10;98.20
306;DHT22;137;48.578;9.180;2022-12-07T06:00:59;2.10;98.20
306;DHT22;137;48.578;9.180;2022-12-07T06:03:26;1.90;98.20
306;DHT22;137;48.578;9.180;2022-12-07T06:05:53;1.80;98.20
306;DHT22;137;48.578;9.180;2022-12-07T06:08:22;1.70;98.20
306;DHT22;137;48.578;9.180;2022-12-07T06:10:49;1.60;98.20
306;DHT22;137;48.578;9.180;2022-12-07T06:13:37;1.50;98.20
306;DHT22;137;48.578;9.180;2022-12-07T06:16:05;1.40;98.20
306;DHT22;137;48.578;9.180;2022-12-07T06:18:32;1.40;98.20
306;DHT22;137;48.578;9.180;2022-12-07T06:20:59;1.30;98.20
306;DHT22;137;48.578;9.180;2022-12-07T06:23:26;1.20;98.20
306;DHT22;137;48.578;9.180;2022-12-07T06:25:53;1.10;98.20
306;DHT22;137;48.578;9.180;2022-12-07T06:28:20;1.10;98.20
306;DHT22;137;48.578;9.180;2022-12-07T06:30:47;1.10;98.20
306;DHT22;137;48.578;9.180;2022-12-07T06:33:18;1.10;98.20
306;DHT22;137;48.578;9.180;2022-12-07T06:35:45;1.20;98.20
306;DHT22;137;48.578;9.180;2022-12-07T06:38:12;1.30;98.20
306;DHT22;137;48.578;9.180;2022-12-07T06:40:38;1.40;98.20
306;DHT22;137;48.578;9.180;2022-12-07T06:43:05;1.40;98.20
306;DHT22;137;48.578;9.180;2022-12-07T06:45:32;1.50;98.20
306;DHT22;137;48.578;9.180;2022-12-07T06:47:59;1.50;98.20
306;DHT22;137;48.578;9.180;2022-12-07T06:50:27;1.50;98.20
306;DHT22;137;48.578;9.180;2022-12-07T06:52:54;1.60;98.20
306;DHT22;137;48.578;9.180;2022-12-07T06:55:20;1.60;98.20
306;DHT22;137;48.578;9.180;2022-12-07T06:57:47;1.70;98.20
306;DHT22;137;48.578;9.180;2022-12-07T07:00:15;1.70;98.20
306;DHT22;137;48.578;9.180;2022-12-07T07:02:42;1.70;98.20
306;DHT22;137;48.578;9.180;2022-12-07T07:05:09;1.70;98.20
306;DHT22;137;48.578;9.180;2022-12-07T07:07:37;1.70;98.20
306;DHT22;137;48.578;9.180;2022-12-07T07:10:05;1.50;98.20
306;DHT22;137;48.578;9.180;2022-12-07T07:12:32;1.50;98.20
306;DHT22;137;48.578;9.180;2022-12-07T07:14:59;1.50;98.20
306;DHT22;137;48.578;9.180;2022-12-07T07:17:25;1.50;98.20
306;DHT22;137;48.578;9.180;2022-12-07T07:19:52;1.70;98.20
306;DHT22;137;48.578;9.180;2022-12-07T07:22:19;1.70;98.20
306;DHT22;137;48.578;9.180;2022-12-07T07:24:47;1.80;98.20
306;DHT22;137;48.578;9.180;2022-12-07T07:27:14;1.80;98.20
306;DHT22;137;48.578;9.180;2022-12-07T07:29:41;1.90;98.20
306;DHT22;137;48.578;9.180;2022-12-07T07:32:07;1.90;98.20
306;DHT22;137;48.578;9.180;2022-12-07T07:34:34;1.90;98.20
306;DHT22;137;48.578;9.180;2022-12-07T07:37:01;1.90;98.20
306;DHT22;137;48.578;9.180;2022-12-07T07:39:28;2.10;98.20
306;DHT22;137;48.578;9.180;2022-12-07T07:41:56;2.20;98.20
306;DHT22;137;48.578;9.180;2022-12-07T07:44:23;2.20;98.20
306;DHT22;137;48.578;9.180;2022-12-07T07:46:50;2.30;98.20
306;DHT22;137;48.578;9.180;2022-12-07T07:49:16;2.40;98.20
306;DHT22;137;48.578;9.180;2022-12-07T07:51:43;2.40;98.20
306;DHT22;137;48.578;9.180;2022-12-07T07:54:10;2.30;98.20
306;DHT22;137;48.578;9.180;2022-12-07T07:56:37;2.40;98.20
306;DHT22;137;48.578;9.180;2022-12-07T07:59:05;2.40;98.20
306;DHT22;137;48.578;9.180;2022-12-07T08:01:32;2.60;98.20
306;DHT22;137;48.578;9.180;2022-12-07T08:03:59;2.70;98.20
306;DHT22;137;48.578;9.180;2022-12-07T08:06:25;2.80;98.20
306;DHT22;137;48.578;9.180;2022-12-07T08:08:52;2.90;98.20
306;DHT22;137;48.578;9.180;2022-12-07T08:11:19;3.00;98.20
306;DHT22;137;48.578;9.180;2022-12-07T08:13:46;3.10;98.20
306;DHT22;137;48.578;9.180;2022-12-07T08:16:15;3.20;98.20
306;DHT22;137;48.578;9.180;2022-12-07T08:18:42;3.20;98.20
306;DHT22;137;48.578;9.180;2022-12-07T08:21:12;3.30;98.20
306;DHT22;137;48.578;9.180;2022-12-07T08:23:39;3.30;98.20
306;DHT22;137;48.578;9.180;2022-12-07T08:26:09;3.40;98.20
306;DHT22;137;48.578;9.180;2022-12-07T08:28:37;3.50;98.20
306;DHT22;137;48.578;9.180;2022-12-07T08:31:06;3.60;98.20
306;DHT22;137;48.578;9.180;2022-12-07T08:33:35;3.60;98.20
306;DHT22;137;48.578;9.180;2022-12-07T08:36:02;3.60;98.20
306;DHT22;137;48.578;9.180;2022-12-07T08:38:30;3.60;98.20
306;DHT22;137;48.578;9.180;2022-12-07T08:40:58;3.70;98.20
306;DHT22;137;48.578;9.180;2022-12-07T08:43:25;3.70;98.20
306;DHT22;137;48.578;9.180;2022-12-07T08:45:56;3.80;98.20
306;DHT22;137;48.578;9.180;2022-12-07T08:48:28;3.80;98.20
306;DHT22;137;48.578;9.180;2022-12-07T08:50:57;3.90;98.20
306;DHT22;137;48.578;9.180;2022-12-07T08:53:24;3.90;98.20
306;DHT22;137;48.578;9.180;2022-12-07T08:55:51;4.00;98.20
306;DHT22;137;48.578;9.180;2022-12-07T08:58:19;4.10;98.20
306;DHT22;137;48.578;9.180;2022-12-07T09:00:46;4.10;98.20
306;DHT22;137;48.578;9.180;2022-12-07T09:03:13;4.20;98.20
306;DHT22;137;48.578;9.180;2022-12-07T09:05:40;4.20;98.20
306;DHT22;137;48.578;9.180;2022-12-07T09:08:34;4.30;98.20
306;DHT22;137;48.578;9.180;2022-12-07T09:11:03;4.30;98.20
306;DHT22;137;48.578;9.180;2022-12-07T09:13:30;4.30;98.20
306;DHT22;137;48.578;9.180;2022-12-07T09:15:56;4.30;98.20
306;DHT22;137;48.578;9.180;2022-12-07T09:18:23;4.30;98.20
306;DHT22;137;48.578;9.180;2022-12-07T09:20:50;4.30;98.20
306;DHT22;137;48.578;9.180;2022-12-07T09:23:17;4.40;98.20
306;DHT22;137;48.578;9.180;2022-12-07T09:25:46;4.40;98.20
306;DHT22;137;48.578;9.180;2022-12-07T09:28:13;4.30;98.20
306;DHT22;137;48.578;9.180;2022-12-07T09:30:45;4.40;98.20
306;DHT22;137;48.578;9.180;2022-12-07T09:33:12;4.40;98.20
306;DHT22;137;48.578;9.180;2022-12-07T09:35:44;4.50;98.20
306;DHT22;137;48.578;9.180;2022-12-07T09:38:11;4.70;98.20
306;DHT22;137;48.578;9.180;2022-12-07T09:40:38;4.70;98.20
306;DHT22;137;48.578;9.180;2022-12-07T09:43:12;4.70;98.20
306;DHT22;137;48.578;9.180;2022-12-07T09:45:40;4.80;98.20
306;DHT22;137;48.578;9.180;2022-12-07T09:48:15;4.80;98.20
306;DHT22;137;48.578;9.180;2022-12-07T09:50:44;4.90;98.20
306;DHT22;137;48.578;9.180;2022-12-07T09:53:15;5.10;98.20
306;DHT22;137;48.578;9.180;2022-12-07T09:55:46;5.10;98.20
306;DHT22;137;48.578;9.180;2022-12-07T09:58:19;5.20;98.20
306;DHT22;137;48.578;9.180;2022-12-07T10:00:47;5.10;98.20
306;DHT22;137;48.578;9.180;2022-12-07T10:03:14;5.20;98.20
306;DHT22;137;48.578;9.180;2022-12-07T10:05:44;5.20;98.20
306;DHT22;137;48.578;9.180;2022-12-07T10:08:12;5.30;98.20
306;DHT22;137;48.578;9.180;2022-12-07T10:10:41;5.40;98.20
306;DHT22;137;48.578;9.180;2022-12-07T10:13:09;5.40;98.20
306;DHT22;137;48.578;9.180;2022-12-07T10:15:44;5.50;98.20
306;DHT22;137;48.578;9.180;2022-12-07T10:18:29;5.50;98.20
306;DHT22;137;48.578;9.180;2022-12-07T10:21:13;5.60;98.20
306;DHT22;137;48.578;9.180;2022-12-07T10:23:43;5.60;98.20
306;DHT22;137;48.578;9.180;2022-12-07T10:26:30;5.60;98.20
306;DHT22;137;48.578;9.180;2022-12-07T10:29:00;5.50;98.20
306;DHT22;137;48.578;9.180;2022-12-07T10:31:29;5.60;98.20
306;DHT22;137;48.578;9.180;2022-12-07T10:33:58;5.50;98.20
306;DHT22;137;48.578;9.180;2022-12-07T10:36:26;5.60;98.20
306;DHT22;137;48.578;9.180;2022-12-07T10:39:00;5.80;98.20
306;DHT22;137;48.578;9.180;2022-12-07T10:41:29;5.80;98.20
306;DHT22;137;48.578;9.180;2022-12-07T10:43:57;5.90;98.20
306;DHT22;137;48.578;9.180;2022-12-07T10:46:51;5.90;98.20
306;DHT22;137;48.578;9.180;2022-12-07T10:49:43;5.90;98.20
306;DHT22;137;48.578;9.180;2022-12-07T10:52:21;5.90;98.20
306;DHT22;137;48.578;9.180;2022-12-07T10:55:05;5.90;98.20
306;DHT22;137;48.578;9.180;2022-12-07T10:57:46;5.90;98.20
306;DHT22;137;48.578;9.180;2022-12-07T11:00:18;5.90;98.20
306;DHT22;137;48.578;9.180;2022-12-07T11:03:05;5.90;98.20
306;DHT22;137;48.578;9.180;2022-12-07T11:05:43;5.90;98.20
306;DHT22;137;48.578;9.180;2022-12-07T11:08:20;5.80;98.20
306;DHT22;137;48.578;9.180;2022-12-07T11:10:54;5.90;98.20
306;DHT22;137;48.578;9.180;2022-12-07T11:13:30;5.90;98.20
306;DHT22;137;48.578;9.180;2022-12-07T11:16:23;6.10;98.20
306;DHT22;137;48.578;9.180;2022-12-07T11:19:20;6.20;98.20
306;DHT22;137;48.578;9.180;2022-12-07T11:21:55;6.30;98.20
306;DHT22;137;48.578;9.180;2022-12-07T11:24:30;6.40;98.20
306;DHT22;137;48.578;9.180;2022-12-07T11:27:09;6.40;98.20
306;DHT22;137;48.578;9.180;2022-12-07T11:29:52;6.50;98.20
306;DHT22;137;48.578;9.180;2022-12-07T11:32:44;6.50;98.20
306;DHT22;137;48.578;9.180;2022-12-07T11:35:24;6.50;98.20
306;DHT22;137;48.578;9.180;2022-12-07T11:37:58;6.50;98.20
306;DHT22;137;48.578;9.180;2022-12-07T11:40:29;6.50;98.20
306;DHT22;137;48.578;9.180;2022-12-07T11:43:04;6.50;98.20
306;DHT22;137;48.578;9.180;2022-12-07T11:45:33;6.60;98.20
306;DHT22;137;48.578;9.180;2022-12-07T11:48:03;6.60;98.20
306;DHT22;137;48.578;9.180;2022-12-07T11:50:37;6.70;98.20
306;DHT22;137;48.578;9.180;2022-12-07T11:53:10;6.70;98.20
306;DHT22;137;48.578;9.180;2022-12-07T11:55:45;6.70;98.20
306;DHT22;137;48.578;9.180;2022-12-07T11:58:24;6.70;98.20
306;DHT22;137;48.578;9.180;2022-12-07T12:01:04;6.70;98.20
306;DHT22;137;48.578;9.180;2022-12-07T12:03:35;6.70;98.20
306;DHT22;137;48.578;9.180;2022-12-07T12:06:06;6.70;98.20
306;DHT22;137;48.578;9.180;2022-12-07T12:08:38;6.60;98.20
306;DHT22;137;48.578;9.180;2022-12-07T12:11:17;6.50;98.20
306;DHT22;137;48.578;9.180;2022-12-07T12:17:01;6.40;98.20
306;DHT22;137;48.578;9.180;2022-12-07T12:19:34;6.40;98.20
306;DHT22;137;48.578;9.180;2022-12-07T12:22:12;6.50;98.20
306;DHT22;137;48.578;9.180;2022-12-07T12:24:41;6.60;98.20
306;DHT22;137;48.578;9.180;2022-12-07T12:27:18;6.60;98.20
306;DHT22;137;48.578;9.180;2022-12-07T12:29:53;6.60;98.20
306;DHT22;137;48.578;9.180;2022-12-07T12:32:23;6.70;98.20
306;DHT22;137;48.578;9.180;2022-12-07T12:35:17;6.70;98.20
306;DHT22;137;48.578;9.180;2022-12-07T12:37:48;6.70;98.20
306;DHT22;137;48.578;9.180;2022-12-07T12:40:40;6.80;98.20
306;DHT22;137;48.578;9.180;2022-12-07T12:49:37;6.70;98.20
306;DHT22;137;48.578;9.180;2022-12-07T12:55:22;6.80;98.20
306;DHT22;137;48.578;9.180;2022-12-07T13:03:55;6.70;98.20
306;DHT22;137;48.578;9.180;2022-12-07T13:06:35;6.60;98.20
306;DHT22;137;48.578;9.180;2022-12-07T13:09:03;6.30;98.20
306;DHT22;137;48.578;9.180;2022-12-07T13:11:35;6.30;98.20
306;DHT22;137;48.578;9.180;2022-12-07T13:14:40;6.40;98.20
306;DHT22;137;48.578;9.180;2022-12-07T13:17:09;6.40;98.20
306;DHT22;137;48.578;9.180;2022-12-07T13:19:57;6.50;98.20
306;DHT22;137;48.578;9.180;2022-12-07T13:22:49;6.50;98.20
306;DHT22;137;48.578;9.180;2022-12-07T13:25:31;6.60;98.20
306;DHT22;137;48.578;9.180;2022-12-07T13:28:17;6.60;98.20
306;DHT22;137;48.578;9.180;2022-12-07T13:30:50;6.60;98.20
306;DHT22;137;48.578;9.180;2022-12-07T13:33:19;6.60;98.20
306;DHT22;137;48.578;9.180;2022-12-07T13:35:47;6.70;98.20
306;DHT22;137;48.578;9.180;2022-12-07T13:38:23;6.70;98.20
306;DHT22;137;48.578;9.180;2022-12-07T13:41:12;6.70;98.20
306;DHT22;137;48.578;9.180;2022-12-07T13:43:45;6.80;98.20
306;DHT22;137;48.578;9.180;2022-12-07T13:46:13;6.80;98.20
306;DHT22;137;48.578;9.180;2022-12-07T13:48:45;6.70;98.20
306;DHT22;137;48.578;9.180;2022-12-07T13:51:19;6.80;98.20
306;DHT22;137;48.578;9.180;2022-12-07T13:53:47;6.80;98.20
306;DHT22;137;48.578;9.180;2022-12-07T13:56:15;6.80;98.20
306;DHT22;137;48.578;9.180;2022-12-07T13:58:44;6.80;98.20
306;DHT22;137;48.578;9.180;2022-12-07T14:01:15;6.80;98.20
306;DHT22;137;48.578;9.180;2022-12-07T14:03:42;6.70;98.20
306;DHT22;137;48.578;9.180;2022-12-07T14:06:24;6.70;98.20
306;DHT22;137;48.578;9.180;2022-12-07T14:09:14;6.60;98.20
306;DHT22;137;48.578;9.180;2022-12-07T14:11:44;6.60;98.20
306;DHT22;137;48.578;9.180;2022-12-07T14:14:19;6.50;98.20
306;DHT22;137;48.578;9.180;2022-12-07T14:17:02;6.40;98.20
306;DHT22;137;48.578;9.180;2022-12-07T14:19:48;6.30;98.20
306;DHT22;137;48.578;9.180;2022-12-07T14:22:25;6.30;98.20
306;DHT22;137;48.578;9.180;2022-12-07T14:25:18;6.20;98.20
306;DHT22;137;48.578;9.180;2022-12-07T14:27:54;6.20;98.20
306;DHT22;137;48.578;9.180;2022-12-07T14:30:26;6.10;98.20
306;DHT22;137;48.578;9.180;2022-12-07T14:33:00;6.10;98.20
306;DHT22;137;48.578;9.180;2022-12-07T14:35:30;5.90;98.20
306;DHT22;137;48.578;9.180;2022-12-07T14:37:58;5.90;98.20
306;DHT22;137;48.578;9.180;2022-12-07T14:40:26;5.90;98.20
306;DHT22;137;48.578;9.180;2022-12-07T14:43:00;5.90;98.20
306;DHT22;137;48.578;9.180;2022-12-07T14:45:29;5.90;98.20
306;DHT22;137;48.578;9.180;2022-12-07T14:47:56;5.90;98.20
306;DHT22;137;48.578;9.180;2022-12-07T14:50:23;5.90;98.20
306;DHT22;137;48.578;9.180;2022-12-07T14:52:54;5.80;98.20
306;DHT22;137;48.578;9.180;2022-12-07T14:55:24;5.70;98.20
306;DHT22;137;48.578;9.180;2022-12-07T14:57:52;5.60;98.20
306;DHT22;137;48.578;9.180;2022-12-07T15:00:21;5.50;98.20
306;DHT22;137;48.578;9.180;2022-12-07T15:02:50;5.40;98.20
306;DHT22;137;48.578;9.180;2022-12-07T15:05:23;5.40;98.20
306;DHT22;137;48.578;9.180;2022-12-07T15:07:51;5.40;98.20
306;DHT22;137;48.578;9.180;2022-12-07T15:10:23;5.40;98.20
306;DHT22;137;48.578;9.180;2022-12-07T15:12:54;5.40;98.20
306;DHT22;137;48.578;9.180;2022-12-07T15:15:41;5.30;98.20
306;DHT22;137;48.578;9.180;2022-12-07T15:18:10;5.30;98.20
306;DHT22;137;48.578;9.180;2022-12-07T15:20:41;5.30;98.20
306;DHT22;137;48.578;9.180;2022-12-07T15:23:11;5.20;98.20
306;DHT22;137;48.578;9.180;2022-12-07T15:25:40;5.20;98.20
306;DHT22;137;48.578;9.180;2022-12-07T15:28:10;5.10;98.20
306;DHT22;137;48.578;9.180;2022-12-07T15:30:37;5.10;98.20
306;DHT22;137;48.578;9.180;2022-12-07T15:33:05;5.10;98.20
306;DHT22;137;48.578;9.180;2022-12-07T15:35:33;4.90;98.20
306;DHT22;137;48.578;9.180;2022-12-07T15:38:00;4.90;98.20
306;DHT22;137;48.578;9.180;2022-12-07T15:40:27;4.80;98.20
306;DHT22;137;48.578;9.180;2022-12-07T15:42:59;4.80;98.20
306;DHT22;137;48.578;9.180;2022-12-07T15:45:26;4.80;98.20
306;DHT22;137;48.578;9.180;2022-12-07T15:47:52;4.70;98.20
306;DHT22;137;48.578;9.180;2022-12-07T15:50:20;4.70;98.20
306;DHT22;137;48.578;9.180;2022-12-07T15:52:49;4.60;98.20
306;DHT22;137;48.578;9.180;2022-12-07T15:55:16;4.60;98.20
306;DHT22;137;48.578;9.180;2022-12-07T15:57:43;4.70;98.20
306;DHT22;137;48.578;9.180;2022-12-07T16:00:14;4.70;98.20
306;DHT22;137;48.578;9.180;2022-12-07T16:02:41;4.70;98.20
306;DHT22;137;48.578;9.180;2022-12-07T16:05:09;4.70;98.20
306;DHT22;137;48.578;9.180;2022-12-07T16:07:36;4.70;98.20
306;DHT22;137;48.578;9.180;2022-12-07T16:10:06;4.70;98.20
306;DHT22;137;48.578;9.180;2022-12-07T16:12:53;4.60;98.20
306;DHT22;137;48.578;9.180;2022-12-07T16:15:38;4.70;98.20
306;DHT22;137;48.578;9.180;2022-12-07T16:18:05;4.60;98.20
306;DHT22;137;48.578;9.180;2022-12-07T16:20:34;4.50;98.20
306;DHT22;137;48.578;9.180;2022-12-07T16:23:05;4.50;98.20
306;DHT22;137;48.578;9.180;2022-12-07T16:38:25;4.30;98.20
306;DHT22;137;48.578;9.180;2022-12-07T16:41:07;4.40;98.20
306;DHT22;137;48.578;9.180;2022-12-07T16:43:48;4.30;98.20
306;DHT22;137;48.578;9.180;2022-12-07T16:46:31;4.30;98.20
306;DHT22;137;48.578;9.180;2022-12-07T16:49:13;4.30;98.20
306;DHT22;137;48.578;9.180;2022-12-07T16:51:55;4.30;98.20
306;DHT22;137;48.578;9.180;2022-12-07T17:01:11;4.00;98.20
306;DHT22;137;48.578;9.180;2022-12-07T17:03:59;4.00;98.20
306;DHT22;137;48.578;9.180;2022-12-07T17:06:41;3.90;98.20
306;DHT22;137;48.578;9.180;2022-12-07T17:09:25;3.90;98.20
306;DHT22;137;48.578;9.180;2022-12-07T17:12:08;3.80;98.20
306;DHT22;137;48.578;9.180;2022-12-07T17:14:49;3.70;98.20
306;DHT22;137;48.578;9.180;2022-12-07T17:27:11;3.30;98.20
306;DHT22;137;48.578;9.180;2022-12-07T17:29:52;3.20;98.20
306;DHT22;137;48.578;9.180;2022-12-07T17:32:19;3.10;98.20
306;DHT22;137;48.578;9.180;2022-12-07T17:34:46;3.00;98.20
306;DHT22;137;48.578;9.180;2022-12-07T17:37:13;3.00;98.20
306;DHT22;137;48.578;9.180;2022-12-07T17:39:40;3.00;98.20
306;DHT22;137;48.578;9.180;2022-12-07T17:42:09;3.00;98.20
306;DHT22;137;48.578;9.180;2022-12-07T17:44:53;2.90;98.20
306;DHT22;137;48.578;9.180;2022-12-07T17:47:20;2.90;98.20
306;DHT22;137;48.578;9.180;2022-12-07T17:49:47;2.80;98.20
306;DHT22;137;48.578;9.180;2022-12-07T17:52:15;2.80;98.20
306;DHT22;137;48.578;9.180;2022-12-07T17:54:59;2.90;98.20
306;DHT22;137;48.578;9.180;2022-12-07T17:57:29;2.90;98.20
306;DHT22;137;48.578;9.180;2022-12-07T17:59:56;2.90;98.20
306;DHT22;137;48.578;9.180;2022-12-07T18:02:23;3.00;98.20
306;DHT22;137;48.578;9.180;2022-12-07T18:04:50;3.00;98.20
306;DHT22;137;48.578;9.180;2022-12-07T18:07:17;3.10;98.20